Time;durP1;ratioP1;P1;durP2;ratioP2;P2;SDS_P1;SDS_P2;PMS_P1;PMS_P2;Temp;Humidity;BMP_temperature;BMP_pressure;BME280_temperature;BME280_humidity;BME280_pressure;Samples;Min_cycle;Max_cycle;Signal;HPM_P1;HPM_P2
2023/08/16 00:00:08;;;;;;;3.40;1.77;;;16.60;99.90;;;;;;5048065;28;20041;-88
2023/08/16 00:02:34;;;;;;;5.28;2.42;;;16.50;99.90;;;;;;5046173;28;20771;-88
2023/08/16 00:05:00;;;;;;;5.07;2.05;;;16.50;99.90;;;;;;5048080;28;20075;-88
2023/08/16 00:07:26;;;;;;;8.48;3.53;;;16.50;99.90;;;;;;5061976;28;20127;-87
2023/08/16 00:09:51;;;;;;;5.80;2.50;;;16.40;99.90;;;;;;5045268;28;20048;-88
2023/08/16 00:12:17;;;;;;;4.72;2.42;;;16.40;99.90;;;;;;5059110;28;20036;-88
2023/08/16 00:14:43;;;;;;;4.55;2.22;;;16.40;99.90;;;;;;5064450;28;20040;-88
2023/08/16 00:17:09;;;;;;;4.75;2.38;;;16.30;99.90;;;;;;5068304;28;20047;-88
2023/08/16 00:19:34;;;;;;;5.28;2.28;;;16.30;99.90;;;;;;5062544;28;20063;-88
2023/08/16 00:22:00;;;;;;;6.15;2.90;;;16.30;99.90;;;;;;5048068;28;20060;-88
2023/08/16 00:24:25;;;;;;;7.22;3.05;;;16.20;99.90;;;;;;5033316;28;20131;-88
2023/08/16 00:26:51;;;;;;;6.32;2.70;;;16.30;99.90;;;;;;5049862;28;20114;-88
2023/08/16 00:29:17;;;;;;;6.53;2.50;;;16.30;99.90;;;;;;5049101;28;20044;-88
2023/08/16 00:31:42;;;;;;;7.10;2.53;;;16.20;99.90;;;;;;5050584;28;20037;-88
2023/08/16 00:34:08;;;;;;;7.78;2.90;;;16.20;99.90;;;;;;5064961;28;20140;-88
2023/08/16 00:36:34;;;;;;;6.15;2.08;;;16.10;99.90;;;;;;5042513;28;20097;-88
2023/08/16 00:38:59;;;;;;;4.75;2.78;;;16.10;99.90;;;;;;5042621;28;20403;-88
2023/08/16 00:41:25;;;;;;;5.45;2.53;;;16.10;99.90;;;;;;5066925;28;20115;-88
2023/08/16 00:43:51;;;;;;;5.47;2.88;;;16.10;99.90;;;;;;5050536;28;20040;-88
2023/08/16 00:46:17;;;;;;;6.72;2.83;;;16.20;99.90;;;;;;5044701;28;20044;-88
2023/08/16 00:48:44;;;;;;;5.68;2.25;;;16.20;99.90;;;;;;5049780;28;20053;-88
2023/08/16 00:51:11;;;;;;;5.85;2.10;;;16.10;99.90;;;;;;5062500;28;20063;-89
2023/08/16 00:53:38;;;;;;;6.80;2.50;;;16.20;99.90;;;;;;5032332;28;20482;-88
2023/08/16 00:56:05;;;;;;;5.10;2.28;;;16.20;99.90;;;;;;5035798;28;20059;-88
2023/08/16 00:58:31;;;;;;;8.60;2.95;;;16.10;99.90;;;;;;5060077;28;20041;-88
2023/08/16 01:00:57;;;;;;;6.68;3.10;;;16.10;99.90;;;;;;5045640;28;20498;-88
2023/08/16 01:03:23;;;;;;;4.57;2.22;;;16.10;99.90;;;;;;5049905;28;20195;-88
2023/08/16 01:05:49;;;;;;;5.13;2.67;;;16.00;99.90;;;;;;5063358;28;20586;-88
2023/08/16 01:08:15;;;;;;;5.13;2.40;;;16.00;99.90;;;;;;5044485;28;20041;-88
2023/08/16 01:10:54;;;;;;;5.65;2.50;;;16.00;99.90;;;;;;5065297;28;20132;-88
2023/08/16 01:13:26;;;;;;;5.97;3.33;;;15.90;99.90;;;;;;5040012;28;20044;-88
2023/08/16 01:15:55;;;;;;;6.68;2.92;;;15.90;99.90;;;;;;5048395;28;20033;-87
2023/08/16 01:18:24;;;;;;;6.10;3.28;;;15.80;99.90;;;;;;5060207;28;20052;-87
2023/08/16 01:20:51;;;;;;;5.28;2.72;;;15.70;99.90;;;;;;5032425;28;20114;-86
2023/08/16 01:23:37;;;;;;;5.80;2.47;;;15.60;99.90;;;;;;5067063;28;20041;-88
2023/08/16 01:26:07;;;;;;;4.65;2.40;;;15.60;99.90;;;;;;5043780;28;20615;-88
2023/08/16 01:28:35;;;;;;;3.75;2.20;;;15.60;99.90;;;;;;5064600;28;20033;-88
2023/08/16 01:31:04;;;;;;;5.10;2.05;;;15.60;99.90;;;;;;5044492;28;20044;-88
2023/08/16 01:33:30;;;;;;;6.70;2.75;;;15.60;99.90;;;;;;5052586;28;20052;-87
2023/08/16 01:35:56;;;;;;;4.05;1.63;;;15.70;99.90;;;;;;5072021;28;20399;-88
2023/08/16 01:38:22;;;;;;;3.83;1.98;;;15.70;99.90;;;;;;5052314;28;20044;-88
2023/08/16 01:41:08;;;;;;;4.13;2.10;;;15.70;99.90;;;;;;5070223;28;20037;-88
2023/08/16 01:43:34;;;;;;;3.95;1.80;;;15.70;99.90;;;;;;5066949;28;20056;-88
2023/08/16 01:46:02;;;;;;;3.97;1.80;;;15.60;99.90;;;;;;5050229;28;20055;-87
2023/08/16 01:48:29;;;;;;;8.38;2.92;;;15.70;99.90;;;;;;5068783;28;20055;-88
2023/08/16 01:50:55;;;;;;;4.57;2.00;;;15.60;99.90;;;;;;5066837;28;20075;-88
2023/08/16 01:53:21;;;;;;;4.95;2.20;;;15.50;99.90;;;;;;5046758;28;20032;-88
2023/08/16 01:55:47;;;;;;;5.65;2.35;;;15.50;99.90;;;;;;5071963;28;20399;-87
2023/08/16 01:58:12;;;;;;;4.88;2.08;;;15.50;99.90;;;;;;5064783;28;20040;-89
2023/08/16 02:00:38;;;;;;;4.13;2.13;;;15.40;99.90;;;;;;5070627;28;20070;-88
2023/08/16 02:03:04;;;;;;;3.88;2.17;;;15.40;99.90;;;;;;5046076;28;20394;-88
2023/08/16 02:05:30;;;;;;;5.43;2.78;;;15.30;99.90;;;;;;5069860;28;20040;-89
2023/08/16 02:07:55;;;;;;;5.55;2.33;;;15.30;99.90;;;;;;5049748;28;20054;-88
2023/08/16 02:10:21;;;;;;;5.72;2.88;;;15.20;99.90;;;;;;5048971;28;20036;-87
2023/08/16 02:12:47;;;;;;;4.97;3.05;;;15.30;99.90;;;;;;5046023;28;20040;-88
2023/08/16 02:15:13;;;;;;;5.28;3.17;;;15.20;99.90;;;;;;5067553;28;20041;-87
2023/08/16 02:17:39;;;;;;;6.15;2.97;;;15.20;99.90;;;;;;5067855;28;20037;-87
2023/08/16 02:20:05;;;;;;;5.47;3.10;;;15.20;99.90;;;;;;5066689;28;20059;-88
2023/08/16 02:22:31;;;;;;;5.30;1.92;;;15.20;99.90;;;;;;5057893;28;20120;-87
2023/08/16 02:24:57;;;;;;;5.78;2.25;;;15.20;99.90;;;;;;5046938;28;20116;-87
2023/08/16 02:27:23;;;;;;;4.32;2.50;;;15.20;99.90;;;;;;5069121;28;20089;-87
2023/08/16 02:29:51;;;;;;;3.80;2.28;;;15.10;99.90;;;;;;5066183;28;20071;-88
2023/08/16 02:32:16;;;;;;;5.60;2.70;;;15.10;99.90;;;;;;5048453;28;20203;-87
2023/08/16 02:34:42;;;;;;;6.88;2.97;;;15.10;99.90;;;;;;5052335;28;20550;-87
2023/08/16 02:37:08;;;;;;;4.25;2.20;;;15.00;99.90;;;;;;5070252;28;20028;-87
2023/08/16 02:39:33;;;;;;;4.95;2.72;;;14.90;99.90;;;;;;5069343;28;20063;-87
2023/08/16 02:41:59;;;;;;;4.55;2.65;;;14.90;99.90;;;;;;5044796;28;20032;-87
2023/08/16 02:44:25;;;;;;;7.22;3.50;;;14.90;99.90;;;;;;5062159;28;20041;-88
2023/08/16 02:46:50;;;;;;;5.63;2.50;;;14.90;99.90;;;;;;5040281;28;20049;-88
2023/08/16 02:49:16;;;;;;;6.70;2.95;;;14.90;99.90;;;;;;5043956;28;20142;-88
2023/08/16 02:51:42;;;;;;;6.10;2.80;;;14.80;99.90;;;;;;5063960;28;20091;-87
2023/08/16 02:54:07;;;;;;;7.30;3.10;;;14.80;99.90;;;;;;5070346;28;20124;-88
2023/08/16 02:56:33;;;;;;;4.82;2.95;;;14.80;99.90;;;;;;5061821;28;20071;-88
2023/08/16 02:58:59;;;;;;;5.25;3.17;;;14.80;99.90;;;;;;5039435;28;20071;-88
2023/08/16 03:01:24;;;;;;;4.35;2.53;;;14.80;99.90;;;;;;5061575;28;20115;-87
2023/08/16 03:03:50;;;;;;;6.80;3.25;;;14.80;99.90;;;;;;5052300;28;20453;-87
2023/08/16 03:06:15;;;;;;;4.15;2.80;;;14.90;99.90;;;;;;5069899;28;20040;-88
2023/08/16 03:08:41;;;;;;;4.25;2.60;;;14.80;99.90;;;;;;5064250;28;20036;-87
2023/08/16 03:11:07;;;;;;;6.38;3.60;;;14.80;99.90;;;;;;5052086;28;20127;-88
2023/08/16 03:13:32;;;;;;;6.75;3.33;;;14.80;99.90;;;;;;5048029;28;20068;-88
2023/08/16 03:15:58;;;;;;;5.90;2.83;;;14.70;99.90;;;;;;5070794;28;20036;-87
2023/08/16 03:18:24;;;;;;;7.80;3.40;;;14.70;99.90;;;;;;5044079;28;20094;-88
2023/08/16 03:20:49;;;;;;;5.15;2.97;;;14.70;99.90;;;;;;5064412;28;20068;-88
2023/08/16 03:23:15;;;;;;;7.25;3.13;;;14.60;99.90;;;;;;5048221;28;20376;-87
2023/08/16 03:25:41;;;;;;;7.15;3.40;;;14.50;99.90;;;;;;5046506;28;20040;-87
2023/08/16 03:28:07;;;;;;;6.75;3.75;;;14.50;99.90;;;;;;5065598;28;20029;-87
2023/08/16 03:30:33;;;;;;;6.68;3.10;;;14.60;99.90;;;;;;5047330;28;20107;-88
2023/08/16 03:32:58;;;;;;;7.72;3.28;;;14.60;99.90;;;;;;5067375;28;20044;-88
2023/08/16 03:35:24;;;;;;;7.55;4.25;;;14.60;99.90;;;;;;5068680;28;20074;-88
2023/08/16 03:37:50;;;;;;;5.32;2.90;;;14.60;99.90;;;;;;5051555;28;20044;-87
2023/08/16 03:40:16;;;;;;;7.43;4.20;;;14.60;99.90;;;;;;5044338;28;20044;-87
2023/08/16 03:42:42;;;;;;;7.85;4.00;;;14.60;99.90;;;;;;5068173;28;20032;-87
2023/08/16 03:45:08;;;;;;;9.70;4.03;;;14.60;99.90;;;;;;5047354;28;20051;-87
2023/08/16 03:47:34;;;;;;;5.55;3.33;;;14.60;99.90;;;;;;5052046;28;20048;-88
2023/08/16 03:50:00;;;;;;;7.95;4.65;;;14.60;99.90;;;;;;5054932;28;20510;-86
2023/08/16 03:52:28;;;;;;;7.82;4.20;;;14.70;99.90;;;;;;5038889;28;20075;-88
2023/08/16 03:54:54;;;;;;;8.30;4.15;;;14.70;99.90;;;;;;5041923;28;20041;-88
2023/08/16 03:57:21;;;;;;;7.30;4.15;;;14.60;99.90;;;;;;5031543;28;20495;-87
2023/08/16 03:59:47;;;;;;;8.35;4.47;;;14.60;99.90;;;;;;5068952;28;20041;-87
2023/08/16 04:02:13;;;;;;;7.38;4.20;;;14.60;99.90;;;;;;5055492;28;20067;-87
2023/08/16 04:04:39;;;;;;;6.30;3.55;;;14.60;99.90;;;;;;5044493;28;20040;-88
2023/08/16 04:07:04;;;;;;;6.72;4.32;;;14.50;99.90;;;;;;5063026;28;20045;-88
2023/08/16 04:09:30;;;;;;;5.78;3.22;;;14.50;99.90;;;;;;5050707;28;20131;-88
2023/08/16 04:11:56;;;;;;;6.32;3.63;;;14.50;99.90;;;;;;5036933;28;20575;-88
2023/08/16 04:14:21;;;;;;;6.05;4.00;;;14.50;99.90;;;;;;5062898;28;20087;-87
2023/08/16 04:16:47;;;;;;;7.32;3.95;;;14.50;99.90;;;;;;5069250;28;20036;-89
2023/08/16 04:19:13;;;;;;;6.75;4.18;;;14.50;99.90;;;;;;5050138;28;20048;-87
2023/08/16 04:21:39;;;;;;;6.45;3.60;;;14.40;99.90;;;;;;5064699;28;20391;-88
2023/08/16 04:24:05;;;;;;;8.07;3.65;;;14.40;99.90;;;;;;5044667;28;20145;-88
2023/08/16 04:26:30;;;;;;;6.68;3.75;;;14.50;99.90;;;;;;5025018;28;20384;-88
2023/08/16 04:28:56;;;;;;;12.13;5.93;;;14.40;99.90;;;;;;5040888;28;20051;-88
2023/08/16 04:31:21;;;;;;;7.70;4.50;;;14.40;99.90;;;;;;5035415;28;20048;-87
2023/08/16 04:33:49;;;;;;;6.30;3.83;;;14.40;99.90;;;;;;5049932;28;20697;-87
2023/08/16 04:36:15;;;;;;;6.18;4.28;;;14.40;99.90;;;;;;5050410;28;20040;-87
2023/08/16 04:38:40;;;;;;;7.13;4.05;;;14.40;99.90;;;;;;5044418;28;20044;-88
2023/08/16 04:41:06;;;;;;;7.10;3.78;;;14.40;99.90;;;;;;5049612;28;20063;-88
2023/08/16 04:43:32;;;;;;;9.13;4.35;;;14.50;99.90;;;;;;5049587;28;20033;-87
2023/08/16 04:45:58;;;;;;;7.25;5.03;;;14.50;99.90;;;;;;5031842;28;20040;-88
2023/08/16 04:48:23;;;;;;;10.52;6.78;;;14.50;99.90;;;;;;5044894;28;20040;-87
2023/08/16 04:50:49;;;;;;;8.30;5.65;;;14.50;99.90;;;;;;5044301;28;20554;-87
2023/08/16 04:53:15;;;;;;;7.88;5.65;;;14.50;99.90;;;;;;5035668;28;20124;-88
2023/08/16 04:55:40;;;;;;;7.75;4.18;;;14.50;99.90;;;;;;5057760;28;20036;-88
2023/08/16 04:58:06;;;;;;;10.85;6.38;;;14.50;99.90;;;;;;5059166;28;20063;-87
2023/08/16 05:00:31;;;;;;;9.95;6.40;;;14.50;99.90;;;;;;5043156;28;20037;-87
2023/08/16 05:02:57;;;;;;;9.93;6.60;;;14.50;99.90;;;;;;5044356;28;20688;-87
2023/08/16 05:05:23;;;;;;;8.82;6.18;;;14.50;99.90;;;;;;5062378;28;20087;-87
2023/08/16 05:07:49;;;;;;;8.48;6.22;;;14.50;99.90;;;;;;5039582;28;20495;-88
2023/08/16 05:10:14;;;;;;;10.93;5.75;;;14.50;99.90;;;;;;5045952;28;20040;-88
2023/08/16 05:12:40;;;;;;;6.10;3.95;;;14.50;99.90;;;;;;5023607;28;20052;-88
2023/08/16 05:15:07;;;;;;;8.05;4.65;;;14.40;99.90;;;;;;5048891;28;20152;-87
2023/08/16 05:17:35;;;;;;;7.55;5.25;;;14.40;99.90;;;;;;5052179;28;20147;-87
2023/08/16 05:20:02;;;;;;;7.55;4.30;;;14.50;99.90;;;;;;5062848;28;20036;-87
2023/08/16 05:22:28;;;;;;;8.23;5.25;;;14.50;99.90;;;;;;5034549;28;20120;-87
2023/08/16 05:24:53;;;;;;;10.43;5.60;;;14.50;99.90;;;;;;5047864;28;20131;-87
2023/08/16 05:27:19;;;;;;;7.80;5.20;;;14.60;99.90;;;;;;5045825;28;20024;-88
2023/08/16 05:29:44;;;;;;;8.43;4.25;;;14.60;99.90;;;;;;5045694;28;20410;-88
2023/08/16 05:32:10;;;;;;;5.40;3.42;;;14.60;99.90;;;;;;5042176;28;20103;-87
2023/08/16 05:34:36;;;;;;;8.75;3.70;;;14.60;99.90;;;;;;5048261;28;20051;-86
2023/08/16 05:37:02;;;;;;;6.18;3.60;;;14.60;99.90;;;;;;5066193;28;20033;-86
2023/08/16 05:39:27;;;;;;;7.93;3.85;;;14.60;99.90;;;;;;5051769;28;20107;-86
2023/08/16 05:41:53;;;;;;;8.40;4.32;;;14.60;99.90;;;;;;5060570;28;20447;-86
2023/08/16 05:44:18;;;;;;;8.27;4.53;;;14.50;99.90;;;;;;5048862;28;20426;-86
2023/08/16 05:46:44;;;;;;;8.57;5.28;;;14.60;99.90;;;;;;5066678;28;20064;-86
2023/08/16 05:49:10;;;;;;;8.93;6.03;;;14.60;99.90;;;;;;5043643;28;20061;-87
2023/08/16 05:51:36;;;;;;;6.72;4.15;;;14.60;99.90;;;;;;5060182;28;20040;-87
2023/08/16 05:54:02;;;;;;;8.48;3.72;;;14.60;99.90;;;;;;5048558;28;20128;-88
2023/08/16 05:56:28;;;;;;;6.15;3.70;;;14.60;99.90;;;;;;5068433;28;20039;-89
2023/08/16 05:58:54;;;;;;;10.90;5.85;;;14.60;99.90;;;;;;5043921;28;20127;-89
2023/08/16 06:01:19;;;;;;;11.60;7.10;;;14.60;99.90;;;;;;5044878;28;20045;-89
2023/08/16 06:03:45;;;;;;;10.00;6.82;;;14.70;99.90;;;;;;5045168;28;20052;-86
2023/08/16 06:06:11;;;;;;;8.77;4.85;;;14.70;99.90;;;;;;5045953;28;20508;-86
2023/08/16 06:08:37;;;;;;;8.20;5.25;;;14.80;99.90;;;;;;5059464;28;20111;-92
2023/08/16 06:11:04;;;;;;;7.10;4.88;;;14.80;99.90;;;;;;5066476;28;20093;-92
2023/08/16 06:13:30;;;;;;;10.75;5.47;;;14.90;99.90;;;;;;5060395;28;20042;-91
2023/08/16 06:15:56;;;;;;;8.32;4.65;;;14.90;99.90;;;;;;5035633;28;20380;-91
2023/08/16 06:18:21;;;;;;;9.73;5.13;;;14.90;99.90;;;;;;5029163;28;20545;-91
2023/08/16 06:20:47;;;;;;;7.28;3.92;;;14.90;99.90;;;;;;5047927;28;20029;-92
2023/08/16 06:23:13;;;;;;;6.88;4.00;;;15.00;99.90;;;;;;5069622;28;20040;-89
2023/08/16 06:25:39;;;;;;;7.60;4.93;;;15.00;99.90;;;;;;5047342;28;20049;-90
2023/08/16 06:28:05;;;;;;;7.72;4.82;;;15.10;99.90;;;;;;5049115;28;20095;-89
2023/08/16 06:30:30;;;;;;;13.60;6.03;;;15.10;99.90;;;;;;5046536;28;20437;-90
2023/08/16 06:32:56;;;;;;;8.00;4.88;;;15.20;99.90;;;;;;5042609;28;20052;-89
2023/08/16 06:35:22;;;;;;;13.43;7.10;;;15.20;99.90;;;;;;5044975;28;20040;-89
2023/08/16 06:37:47;;;;;;;9.82;6.32;;;15.30;99.90;;;;;;5063723;28;20036;-89
2023/08/16 06:40:13;;;;;;;11.65;6.20;;;15.30;99.90;;;;;;5065727;28;20041;-89
2023/08/16 06:42:39;;;;;;;8.68;5.55;;;15.30;99.90;;;;;;5051665;28;20479;-90
2023/08/16 06:45:07;;;;;;;8.90;5.15;;;15.30;99.90;;;;;;5051827;28;20129;-90
2023/08/16 06:47:32;;;;;;;7.68;4.50;;;15.40;99.90;;;;;;5056931;28;20064;-90
2023/08/16 06:49:58;;;;;;;9.27;6.60;;;15.40;99.90;;;;;;5060287;28;20499;-88
2023/08/16 06:52:24;;;;;;;8.95;5.18;;;15.50;99.90;;;;;;5069457;28;20120;-90
2023/08/16 06:54:49;;;;;;;7.63;4.90;;;15.50;99.90;;;;;;5064043;28;20109;-89
2023/08/16 06:57:15;;;;;;;7.45;3.80;;;15.50;99.90;;;;;;5064916;28;20047;-92
2023/08/16 06:59:41;;;;;;;9.23;6.85;;;15.60;99.90;;;;;;5028756;28;20479;-90
2023/08/16 07:02:11;;;;;;;9.15;5.70;;;15.60;99.90;;;;;;5049717;28;20116;-87
2023/08/16 07:04:38;;;;;;;9.10;5.90;;;15.60;99.90;;;;;;5064453;28;20047;-85
2023/08/16 07:07:05;;;;;;;12.25;7.63;;;15.70;99.90;;;;;;5044736;28;20476;-88
2023/08/16 07:09:30;;;;;;;13.75;7.82;;;15.70;99.90;;;;;;5063316;28;20561;-89
2023/08/16 07:11:56;;;;;;;14.43;8.57;;;15.80;99.90;;;;;;5049612;28;20042;-91
2023/08/16 07:14:22;;;;;;;11.20;7.70;;;15.80;99.90;;;;;;5038517;28;20390;-89
2023/08/16 07:16:47;;;;;;;11.85;8.52;;;15.90;99.90;;;;;;5038708;28;20520;-90
2023/08/16 07:19:13;;;;;;;11.95;7.25;;;16.00;99.90;;;;;;5039093;28;20158;-89
2023/08/16 07:21:39;;;;;;;12.13;7.72;;;16.10;99.90;;;;;;5045890;28;20537;-88
2023/08/16 07:24:05;;;;;;;10.82;6.53;;;16.20;99.90;;;;;;5058457;28;20120;-89
2023/08/16 07:26:30;;;;;;;13.48;7.30;;;16.20;99.90;;;;;;5052942;28;20501;-91
2023/08/16 07:28:56;;;;;;;13.88;6.10;;;16.20;99.90;;;;;;5042937;28;20052;-86
2023/08/16 07:31:22;;;;;;;13.57;6.25;;;16.30;99.90;;;;;;5050714;28;20190;-90
2023/08/16 07:33:48;;;;;;;10.68;6.15;;;16.40;99.90;;;;;;5057991;28;20143;-88
2023/08/16 07:36:14;;;;;;;11.80;5.78;;;16.40;99.90;;;;;;5047145;28;20041;-87
2023/08/16 07:38:40;;;;;;;7.55;4.53;;;16.50;99.90;;;;;;5046291;28;20368;-86
2023/08/16 07:41:07;;;;;;;6.78;3.83;;;16.50;99.90;;;;;;5066376;28;20043;-88
2023/08/16 07:43:32;;;;;;;8.98;4.35;;;16.60;99.90;;;;;;5042066;28;20036;-88
2023/08/16 07:45:58;;;;;;;11.85;4.07;;;16.60;99.90;;;;;;5045824;28;20036;-91
2023/08/16 07:48:24;;;;;;;8.93;3.83;;;16.60;99.90;;;;;;5039114;28;20123;-90
2023/08/16 07:50:50;;;;;;;9.88;3.55;;;16.70;99.90;;;;;;5045158;28;20048;-91
2023/08/16 07:53:16;;;;;;;8.48;3.53;;;16.80;99.90;;;;;;5024810;28;20072;-89
2023/08/16 07:55:42;;;;;;;9.15;3.22;;;16.80;99.90;;;;;;5046307;28;20041;-86
2023/08/16 07:58:08;;;;;;;6.68;2.60;;;16.90;99.90;;;;;;5045131;28;20059;-86
2023/08/16 08:00:34;;;;;;;6.25;2.60;;;16.90;99.90;;;;;;5043889;28;20471;-84
2023/08/16 08:02:59;;;;;;;7.53;2.80;;;17.00;99.90;;;;;;5048559;28;20090;-84
2023/08/16 08:05:25;;;;;;;8.15;2.90;;;17.00;99.90;;;;;;5056452;28;20045;-84
2023/08/16 08:07:55;;;;;;;9.73;3.10;;;17.10;99.90;;;;;;5044686;28;20060;-84
2023/08/16 08:10:21;;;;;;;7.80;3.20;;;17.20;99.90;;;;;;5064178;28;20047;-85
2023/08/16 08:12:47;;;;;;;6.68;2.53;;;17.40;99.90;;;;;;5047788;28;20048;-84
2023/08/16 08:15:13;;;;;;;7.55;2.50;;;17.50;99.90;;;;;;5063723;28;20396;-85
2023/08/16 08:17:40;;;;;;;4.38;2.47;;;17.60;99.90;;;;;;5043018;28;20369;-85
2023/08/16 08:20:07;;;;;;;6.90;2.72;;;17.70;99.90;;;;;;5063218;28;20105;-84
2023/08/16 08:22:33;;;;;;;6.47;2.92;;;17.80;99.90;;;;;;5044889;28;20104;-85
2023/08/16 08:24:59;;;;;;;7.05;2.40;;;17.80;99.90;;;;;;5066613;28;20439;-85
2023/08/16 08:27:25;;;;;;;7.45;2.50;;;17.80;99.90;;;;;;5063197;28;20560;-85
2023/08/16 08:29:51;;;;;;;6.70;2.30;;;17.90;99.90;;;;;;5057610;28;20048;-84
2023/08/16 08:32:17;;;;;;;5.82;2.40;;;18.00;99.90;;;;;;5057842;28;20107;-85
2023/08/16 08:34:43;;;;;;;5.50;2.17;;;18.10;99.90;;;;;;5045182;28;20087;-84
2023/08/16 08:37:09;;;;;;;6.20;2.40;;;18.20;99.90;;;;;;5048566;28;20048;-84
2023/08/16 08:39:35;;;;;;;5.45;1.90;;;18.20;99.90;;;;;;5032210;28;20037;-85
2023/08/16 08:42:04;;;;;;;5.70;1.80;;;18.40;99.90;;;;;;5059564;28;20051;-85
2023/08/16 08:44:32;;;;;;;5.38;1.75;;;18.60;99.90;;;;;;5025702;28;20498;-85
2023/08/16 08:46:59;;;;;;;5.00;1.60;;;18.70;99.90;;;;;;5046576;28;20690;-85
2023/08/16 08:49:25;;;;;;;5.68;1.85;;;18.80;99.90;;;;;;5059587;28;20059;-84
2023/08/16 08:51:51;;;;;;;6.68;1.58;;;18.80;99.90;;;;;;5060559;28;20049;-84
2023/08/16 08:54:17;;;;;;;5.32;1.73;;;18.80;99.90;;;;;;5061656;28;20032;-84
2023/08/16 08:56:44;;;;;;;4.57;1.73;;;18.80;99.90;;;;;;5062991;28;20067;-84
2023/08/16 08:59:11;;;;;;;6.05;1.63;;;18.90;99.90;;;;;;5052184;28;20056;-85
2023/08/16 09:01:37;;;;;;;2.85;1.27;;;19.00;99.90;;;;;;5064058;28;20059;-84
2023/08/16 09:04:04;;;;;;;5.32;1.83;;;19.10;99.90;;;;;;5033030;28;20037;-84
2023/08/16 09:06:30;;;;;;;2.90;1.48;;;19.30;99.90;;;;;;5047742;28;20044;-84
2023/08/16 09:08:56;;;;;;;5.88;1.40;;;19.50;99.90;;;;;;5024471;28;20041;-84
2023/08/16 09:11:24;;;;;;;4.28;1.48;;;19.60;99.90;;;;;;5044231;28;20479;-84
2023/08/16 09:13:51;;;;;;;4.30;1.40;;;19.70;99.90;;;;;;5020973;28;20553;-84
2023/08/16 09:16:17;;;;;;;4.72;1.15;;;19.80;99.90;;;;;;5047619;28;20056;-84
2023/08/16 09:18:49;;;;;;;3.20;1.13;;;19.80;99.90;;;;;;5046544;28;20040;-84
2023/08/16 09:21:19;;;;;;;4.43;1.60;;;19.80;99.90;;;;;;5034501;28;20164;-84
2023/08/16 09:23:45;;;;;;;2.13;1.00;;;19.70;99.90;;;;;;5045849;28;20055;-84
2023/08/16 09:26:15;;;;;;;4.60;1.38;;;19.60;99.90;;;;;;5032932;28;20487;-84
2023/08/16 09:28:41;;;;;;;3.33;1.20;;;19.50;99.90;;;;;;5066568;28;20091;-84
2023/08/16 09:31:07;;;;;;;2.72;1.27;;;19.50;99.90;;;;;;5027265;28;20103;-84
2023/08/16 09:33:38;;;;;;;4.97;1.65;;;19.50;99.90;;;;;;5038925;28;20471;-84
2023/08/16 09:36:04;;;;;;;4.05;1.38;;;19.40;99.90;;;;;;5043002;28;20128;-84
2023/08/16 09:38:32;;;;;;;3.85;1.45;;;19.40;99.90;;;;;;5065234;28;20036;-84
2023/08/16 09:40:58;;;;;;;3.72;1.30;;;19.40;99.90;;;;;;5060592;28;20072;-84
2023/08/16 09:43:23;;;;;;;3.90;1.20;;;19.40;99.90;;;;;;5042049;28;20483;-84
2023/08/16 09:45:54;;;;;;;4.57;1.35;;;19.40;99.90;;;;;;5045229;28;20048;-85
2023/08/16 09:48:25;;;;;;;3.83;1.40;;;19.40;99.90;;;;;;5058968;28;20045;-84
2023/08/16 09:50:51;;;;;;;7.30;1.60;;;19.50;99.90;;;;;;5064800;28;20052;-84
2023/08/16 09:53:16;;;;;;;3.70;1.30;;;19.50;99.90;;;;;;5046914;28;20060;-84
2023/08/16 09:55:49;;;;;;;3.78;1.60;;;19.50;99.90;;;;;;5047158;28;20472;-85
2023/08/16 09:58:18;;;;;;;5.60;1.63;;;19.50;99.90;;;;;;5052437;28;20072;-85
2023/08/16 10:00:43;;;;;;;3.50;1.40;;;19.60;99.90;;;;;;5061380;28;20041;-84
2023/08/16 10:03:10;;;;;;;4.43;1.65;;;19.60;99.90;;;;;;5023734;28;20036;-84
2023/08/16 10:05:37;;;;;;;5.38;1.80;;;19.70;99.90;;;;;;5044481;28;20127;-84
2023/08/16 10:08:05;;;;;;;6.63;2.00;;;19.90;99.90;;;;;;5050457;28;20044;-85
2023/08/16 10:10:34;;;;;;;4.15;1.70;;;20.00;99.90;;;;;;5064344;28;20049;-84
2023/08/16 10:13:01;;;;;;;3.88;1.30;;;20.20;99.90;;;;;;5046384;28;20057;-84
2023/08/16 10:15:32;;;;;;;7.10;2.10;;;20.30;99.90;;;;;;5068165;28;20042;-84
2023/08/16 10:18:00;;;;;;;4.18;1.20;;;20.50;99.90;;;;;;5045187;28;20041;-84
2023/08/16 10:20:29;;;;;;;4.88;1.65;;;20.70;99.90;;;;;;5031531;28;20072;-84
2023/08/16 10:23:02;;;;;;;3.10;1.80;;;20.90;99.90;;;;;;5046927;28;20045;-84
2023/08/16 10:25:36;;;;;;;8.05;2.30;;;21.10;99.90;;;;;;5064015;28;20068;-84
2023/08/16 10:28:03;;;;;;;5.78;2.47;;;21.30;99.90;;;;;;5063563;28;20539;-84
2023/08/16 10:30:30;;;;;;;3.95;1.90;;;21.50;99.90;;;;;;5039880;28;20078;-84
2023/08/16 10:33:10;;;;;;;5.03;1.90;;;21.70;99.90;;;;;;5065851;28;20119;-84
2023/08/16 10:35:39;;;;;;;4.85;1.92;;;21.80;99.90;;;;;;5034902;28;20052;-84
2023/08/16 10:38:05;;;;;;;4.10;1.73;;;22.00;99.90;;;;;;5066986;28;20051;-84
2023/08/16 10:40:30;;;;;;;3.67;1.70;;;22.10;99.90;;;;;;5063890;28;20111;-84
2023/08/16 10:42:58;;;;;;;4.65;2.15;;;22.20;99.90;;;;;;5051513;28;20025;-84
2023/08/16 10:45:25;;;;;;;6.80;2.00;;;22.30;99.90;;;;;;5049859;28;20044;-85
2023/08/16 10:47:51;;;;;;;7.13;2.25;;;22.40;99.90;;;;;;5048867;28;20398;-84
2023/08/16 10:50:17;;;;;;;5.57;2.05;;;22.50;99.90;;;;;;5058318;28;20136;-84
2023/08/16 10:52:43;;;;;;;7.18;2.30;;;22.60;99.90;;;;;;5046435;28;20125;-84
2023/08/16 10:55:10;;;;;;;7.43;2.00;;;22.70;99.90;;;;;;5059886;28;20115;-84
2023/08/16 10:57:36;;;;;;;6.22;2.33;;;22.80;99.90;;;;;;5059595;28;20093;-84
2023/08/16 11:00:07;;;;;;;4.45;2.20;;;23.00;99.90;;;;;;5047313;28;20032;-84
2023/08/16 11:02:36;;;;;;;5.95;2.33;;;23.20;99.90;;;;;;5062893;28;20028;-84
2023/08/16 11:05:02;;;;;;;6.03;2.70;;;23.30;99.90;;;;;;5065865;28;20040;-84
2023/08/16 11:07:28;;;;;;;8.43;2.22;;;23.50;99.90;;;;;;5068784;28;20047;-84
2023/08/16 11:10:01;;;;;;;5.65;1.80;;;23.60;99.90;;;;;;5051681;28;20514;-84
2023/08/16 11:12:30;;;;;;;3.80;1.50;;;23.70;99.90;;;;;;5021983;28;20191;-85
2023/08/16 11:15:00;;;;;;;3.35;1.13;;;23.90;99.90;;;;;;5051690;28;20037;-84
2023/08/16 11:17:26;;;;;;;3.20;1.17;;;24.00;99.90;;;;;;5049678;28;20044;-84
2023/08/16 11:19:55;;;;;;;3.58;1.00;;;24.10;99.90;;;;;;5060731;28;20044;-84
2023/08/16 11:22:22;;;;;;;6.43;1.33;;;24.20;99.90;;;;;;5061907;28;20037;-84
2023/08/16 11:24:49;;;;;;;4.15;0.93;;;24.40;99.90;;;;;;5045272;28;20091;-84
2023/08/16 11:27:24;;;;;;;4.78;0.80;;;24.40;99.90;;;;;;5045835;28;20049;-84
2023/08/16 11:29:59;;;;;;;3.35;0.85;;;24.50;99.90;;;;;;5049417;28;20037;-84
2023/08/16 11:32:33;;;;;;;2.90;0.80;;;24.60;99.90;;;;;;5033459;28;20066;-84
2023/08/16 11:34:59;;;;;;;;;;;24.70;99.90;;;;;;5027166;28;20033;-84
2023/08/16 11:37:24;;;;;;;2.45;0.90;;;24.80;99.90;;;;;;5051058;28;19970;-85
2023/08/16 11:40:00;;;;;;;2.85;0.80;;;24.90;99.90;;;;;;5030529;28;20522;-84
2023/08/16 11:42:28;;;;;;;4.72;1.33;;;24.90;99.90;;;;;;5048035;28;20055;-84
2023/08/16 11:44:54;;;;;;;3.83;0.88;;;24.90;99.90;;;;;;5047105;28;20047;-84
2023/08/16 11:47:20;;;;;;;2.92;0.90;;;25.00;99.90;;;;;;5049697;28;20044;-84
2023/08/16 11:49:49;;;;;;;5.20;1.23;;;25.10;99.90;;;;;;5040611;28;20079;-84
2023/08/16 11:52:25;;;;;;;5.18;1.00;;;25.20;99.90;;;;;;5040758;28;20498;-85
2023/08/16 11:55:05;;;;;;;2.28;0.80;;;25.20;99.90;;;;;;5058493;28;20101;-84
2023/08/16 11:57:44;;;;;;;3.70;0.70;;;25.20;99.90;;;;;;5047857;28;20048;-84
2023/08/16 12:00:10;;;;;;;4.57;0.80;;;25.10;99.90;;;;;;5045636;28;20048;-83
2023/08/16 12:02:36;;;;;;;1.92;0.63;;;25.00;99.90;;;;;;5050185;28;20044;-84
2023/08/16 12:05:10;;;;;;;4.63;0.70;;;25.10;99.90;;;;;;5030718;28;20045;-84
2023/08/16 12:07:51;;;;;;;3.22;0.93;;;25.20;99.90;;;;;;5036515;28;20037;-84
2023/08/16 12:10:27;;;;;;;2.47;0.88;;;25.30;99.90;;;;;;5066859;28;20047;-84
2023/08/16 12:12:56;;;;;;;4.32;0.95;;;25.40;99.90;;;;;;5058882;28;20115;-84
2023/08/16 12:15:27;;;;;;;3.40;0.68;;;25.40;99.90;;;;;;5044498;28;20068;-84
2023/08/16 12:17:57;;;;;;;2.35;0.90;;;25.20;99.90;;;;;;5035435;28;20354;-84
2023/08/16 12:20:26;;;;;;;2.67;0.63;;;25.00;99.90;;;;;;5044231;28;20040;-84
2023/08/16 12:22:53;;;;;;;1.60;0.60;;;24.90;99.90;;;;;;5036244;28;20040;-84
2023/08/16 12:25:19;;;;;;;3.03;0.70;;;24.90;99.90;;;;;;5045833;28;20483;-84
2023/08/16 12:27:45;;;;;;;4.55;0.90;;;25.00;99.90;;;;;;5063974;28;20095;-84
2023/08/16 12:30:12;;;;;;;2.45;0.60;;;25.10;99.90;;;;;;5047547;28;20056;-85
2023/08/16 12:32:37;;;;;;;2.35;0.63;;;25.30;99.90;;;;;;5059819;28;20052;-84
2023/08/16 12:35:03;;;;;;;5.95;0.90;;;25.40;99.90;;;;;;5040315;28;20098;-84
2023/08/16 12:37:29;;;;;;;2.67;0.85;;;25.60;99.90;;;;;;5041149;28;20041;-84
2023/08/16 12:39:55;;;;;;;3.40;0.70;;;25.70;99.90;;;;;;5050213;28;20476;-84
2023/08/16 12:42:21;;;;;;;2.63;0.63;;;25.70;99.90;;;;;;5062541;28;20040;-84